sensor_id;sensor_type;location;lat;lon;timestamp;temperature;humidity
51595;DHT22;37677;53.254;6.594;2023-05-15T00:00:48;11.30;97.50
51595;DHT22;37677;53.254;6.594;2023-05-15T00:03:13;11.10;97.20
51595;DHT22;37677;53.254;6.594;2023-05-15T00:05:39;11.10;97.20
51595;DHT22;37677;53.254;6.594;2023-05-15T00:08:05;11.00;97.50
51595;DHT22;37677;53.254;6.594;2023-05-15T00:10:30;11.30;97.20
51595;DHT22;37677;53.254;6.594;2023-05-15T00:12:56;11.00;98.00
51595;DHT22;37677;53.254;6.594;2023-05-15T00:15:22;11.10;98.40
51595;DHT22;37677;53.254;6.594;2023-05-15T00:17:47;11.10;97.70
51595;DHT22;37677;53.254;6.594;2023-05-15T00:20:13;11.00;98.10
51595;DHT22;37677;53.254;6.594;2023-05-15T00:22:39;10.90;98.60
51595;DHT22;37677;53.254;6.594;2023-05-15T00:25:05;11.00;98.20
51595;DHT22;37677;53.254;6.594;2023-05-15T00:27:31;9.30;97.70
51595;DHT22;37677;53.254;6.594;2023-05-15T00:29:56;11.30;98.50
51595;DHT22;37677;53.254;6.594;2023-05-15T00:32:22;11.00;98.90
51595;DHT22;37677;53.254;6.594;2023-05-15T00:34:47;11.00;98.20
51595;DHT22;37677;53.254;6.594;2023-05-15T00:37:13;10.90;98.00
51595;DHT22;37677;53.254;6.594;2023-05-15T00:39:39;11.10;98.80
51595;DHT22;37677;53.254;6.594;2023-05-15T00:42:05;10.90;98.90
51595;DHT22;37677;53.254;6.594;2023-05-15T00:44:32;11.10;98.40
51595;DHT22;37677;53.254;6.594;2023-05-15T00:47:00;11.10;99.50
51595;DHT22;37677;53.254;6.594;2023-05-15T00:49:28;11.00;98.70
51595;DHT22;37677;53.254;6.594;2023-05-15T00:51:55;10.90;98.60
51595;DHT22;37677;53.254;6.594;2023-05-15T00:54:23;10.90;99.40
51595;DHT22;37677;53.254;6.594;2023-05-15T00:56:49;11.10;98.80
51595;DHT22;37677;53.254;6.594;2023-05-15T00:59:16;11.80;99.30
51595;DHT22;37677;53.254;6.594;2023-05-15T01:01:42;11.00;98.70
51595;DHT22;37677;53.254;6.594;2023-05-15T01:04:09;11.10;98.30
51595;DHT22;37677;53.254;6.594;2023-05-15T01:06:36;11.00;98.00
51595;DHT22;37677;53.254;6.594;2023-05-15T01:09:02;11.00;98.10
51595;DHT22;37677;53.254;6.594;2023-05-15T01:11:29;11.10;97.70
51595;DHT22;37677;53.254;6.594;2023-05-15T01:14:05;11.00;96.80
51595;DHT22;37677;53.254;6.594;2023-05-15T01:16:32;11.00;96.70
51595;DHT22;37677;53.254;6.594;2023-05-15T01:18:58;11.00;96.60
51595;DHT22;37677;53.254;6.594;2023-05-15T01:27:32;10.90;95.30
51595;DHT22;37677;53.254;6.594;2023-05-15T01:32:54;10.90;94.40
51595;DHT22;37677;53.254;6.594;2023-05-15T01:35:32;10.70;96.20
51595;DHT22;37677;53.254;6.594;2023-05-15T01:40:47;10.70;97.90
51595;DHT22;37677;53.254;6.594;2023-05-15T01:43:19;10.80;97.80
51595;DHT22;37677;53.254;6.594;2023-05-15T01:45:46;10.40;98.00
51595;DHT22;37677;53.254;6.594;2023-05-15T01:48:12;10.60;97.80
51595;DHT22;37677;53.254;6.594;2023-05-15T01:50:40;10.50;97.50
51595;DHT22;37677;53.254;6.594;2023-05-15T01:53:07;10.40;97.70
51595;DHT22;37677;53.254;6.594;2023-05-15T01:55:34;10.60;97.50
51595;DHT22;37677;53.254;6.594;2023-05-15T01:58:00;10.30;97.40
51595;DHT22;37677;53.254;6.594;2023-05-15T02:00:27;10.40;97.50
51595;DHT22;37677;53.254;6.594;2023-05-15T02:02:56;10.40;97.60
51595;DHT22;37677;53.254;6.594;2023-05-15T02:05:22;11.00;97.70
51595;DHT22;37677;53.254;6.594;2023-05-15T02:07:48;10.30;97.30
51595;DHT22;37677;53.254;6.594;2023-05-15T02:10:16;10.50;96.60
51595;DHT22;37677;53.254;6.594;2023-05-15T02:12:43;10.30;96.60
51595;DHT22;37677;53.254;6.594;2023-05-15T02:15:09;10.20;98.10
51595;DHT22;37677;53.254;6.594;2023-05-15T02:17:36;10.40;98.70
51595;DHT22;37677;53.254;6.594;2023-05-15T02:20:02;10.20;99.30
51595;DHT22;37677;53.254;6.594;2023-05-15T02:22:29;10.20;99.70
51595;DHT22;37677;53.254;6.594;2023-05-15T02:24:55;10.40;99.60
51595;DHT22;37677;53.254;6.594;2023-05-15T02:27:32;10.30;99.30
51595;DHT22;37677;53.254;6.594;2023-05-15T02:30:18;10.30;99.40
51595;DHT22;37677;53.254;6.594;2023-05-15T02:32:53;10.30;99.10
51595;DHT22;37677;53.254;6.594;2023-05-15T02:38:16;10.30;97.00
51595;DHT22;37677;53.254;6.594;2023-05-15T02:40:44;10.20;97.10
51595;DHT22;37677;53.254;6.594;2023-05-15T02:43:10;10.20;97.30
51595;DHT22;37677;53.254;6.594;2023-05-15T02:45:44;10.20;97.30
51595;DHT22;37677;53.254;6.594;2023-05-15T02:48:16;10.20;96.60
51595;DHT22;37677;53.254;6.594;2023-05-15T02:50:45;10.40;97.60
51595;DHT22;37677;53.254;6.594;2023-05-15T02:53:11;10.10;97.10
51595;DHT22;37677;53.254;6.594;2023-05-15T02:55:38;10.20;97.10
51595;DHT22;37677;53.254;6.594;2023-05-15T02:58:04;10.40;97.80
51595;DHT22;37677;53.254;6.594;2023-05-15T03:00:30;10.40;97.80
51595;DHT22;37677;53.254;6.594;2023-05-15T03:02:56;10.10;97.40
51595;DHT22;37677;53.254;6.594;2023-05-15T03:05:22;10.10;96.40
51595;DHT22;37677;53.254;6.594;2023-05-15T06:55:29;13.80;3.10
51595;DHT22;37677;53.254;6.594;2023-05-15T06:57:55;13.90;34.40
51595;DHT22;37677;53.254;6.594;2023-05-15T07:00:21;14.40;26.40
51595;DHT22;37677;53.254;6.594;2023-05-15T07:02:46;14.10;1.00
51595;DHT22;37677;53.254;6.594;2023-05-15T07:05:13;14.00;1.00
51595;DHT22;37677;53.254;6.594;2023-05-15T07:07:39;14.20;4.70
51595;DHT22;37677;53.254;6.594;2023-05-15T07:10:06;14.10;1.00
51595;DHT22;37677;53.254;6.594;2023-05-15T07:12:32;14.40;1.00
51595;DHT22;37677;53.254;6.594;2023-05-15T07:14:58;14.70;1.00
51595;DHT22;37677;53.254;6.594;2023-05-15T07:17:24;14.80;1.00
51595;DHT22;37677;53.254;6.594;2023-05-15T07:19:50;15.30;1.00
51595;DHT22;37677;53.254;6.594;2023-05-15T07:22:15;15.20;1.00
51595;DHT22;37677;53.254;6.594;2023-05-15T07:24:41;16.30;1.00
51595;DHT22;37677;53.254;6.594;2023-05-15T07:27:07;16.40;99.90
51595;DHT22;37677;53.254;6.594;2023-05-15T07:29:32;16.30;99.90
51595;DHT22;37677;53.254;6.594;2023-05-15T07:31:58;16.20;99.90
51595;DHT22;37677;53.254;6.594;2023-05-15T07:34:24;16.40;99.90
51595;DHT22;37677;53.254;6.594;2023-05-15T07:36:49;16.80;99.90
51595;DHT22;37677;53.254;6.594;2023-05-15T07:39:15;17.40;99.90
51595;DHT22;37677;53.254;6.594;2023-05-15T07:41:41;17.50;1.00
51595;DHT22;37677;53.254;6.594;2023-05-15T07:44:07;17.50;99.90
51595;DHT22;37677;53.254;6.594;2023-05-15T07:46:33;17.40;99.90
51595;DHT22;37677;53.254;6.594;2023-05-15T07:48:59;18.00;99.90
51595;DHT22;37677;53.254;6.594;2023-05-15T07:51:24;18.60;1.00
51595;DHT22;37677;53.254;6.594;2023-05-15T07:53:50;18.20;1.00
51595;DHT22;37677;53.254;6.594;2023-05-15T07:56:16;18.00;99.90
51595;DHT22;37677;53.254;6.594;2023-05-15T07:58:41;17.80;99.90
51595;DHT22;37677;53.254;6.594;2023-05-15T08:01:07;17.80;40.80
51595;DHT22;37677;53.254;6.594;2023-05-15T08:03:33;17.70;99.90
51595;DHT22;37677;53.254;6.594;2023-05-15T08:05:58;17.70;25.60
51595;DHT22;37677;53.254;6.594;2023-05-15T08:08:24;17.40;24.40
51595;DHT22;37677;53.254;6.594;2023-05-15T08:10:50;17.80;1.00
51595;DHT22;37677;53.254;6.594;2023-05-15T08:13:16;18.10;1.00
51595;DHT22;37677;53.254;6.594;2023-05-15T08:30:19;19.50;99.90
51595;DHT22;37677;53.254;6.594;2023-05-15T08:32:45;19.90;99.90
51595;DHT22;37677;53.254;6.594;2023-05-15T08:35:10;19.40;15.10
51595;DHT22;37677;53.254;6.594;2023-05-15T08:37:36;18.90;99.90
51595;DHT22;37677;53.254;6.594;2023-05-15T08:40:02;19.20;94.20
51595;DHT22;37677;53.254;6.594;2023-05-15T08:42:53;19.90;99.90
51595;DHT22;37677;53.254;6.594;2023-05-15T08:45:20;20.10;1.00
51595;DHT22;37677;53.254;6.594;2023-05-15T08:47:46;18.90;36.50
51595;DHT22;37677;53.254;6.594;2023-05-15T08:50:13;19.10;99.90
51595;DHT22;37677;53.254;6.594;2023-05-15T08:52:41;19.70;1.00
51595;DHT22;37677;53.254;6.594;2023-05-15T08:55:10;19.00;99.90
51595;DHT22;37677;53.254;6.594;2023-05-15T08:57:36;19.20;99.90
51595;DHT22;37677;53.254;6.594;2023-05-15T09:00:03;19.40;1.00
51595;DHT22;37677;53.254;6.594;2023-05-15T09:02:35;19.40;1.00
51595;DHT22;37677;53.254;6.594;2023-05-15T09:05:01;19.60;1.00
51595;DHT22;37677;53.254;6.594;2023-05-15T09:07:29;19.30;87.80
51595;DHT22;37677;53.254;6.594;2023-05-15T09:09:56;19.40;1.00
51595;DHT22;37677;53.254;6.594;2023-05-15T09:12:24;19.30;1.00
51595;DHT22;37677;53.254;6.594;2023-05-15T09:14:50;19.40;1.00
51595;DHT22;37677;53.254;6.594;2023-05-15T09:17:16;19.10;99.90
51595;DHT22;37677;53.254;6.594;2023-05-15T09:19:42;19.20;1.00
51595;DHT22;37677;53.254;6.594;2023-05-15T09:22:19;19.40;1.00
51595;DHT22;37677;53.254;6.594;2023-05-15T09:24:50;18.70;1.00
51595;DHT22;37677;53.254;6.594;2023-05-15T09:27:18;19.20;99.90
51595;DHT22;37677;53.254;6.594;2023-05-15T09:29:44;19.10;99.90
51595;DHT22;37677;53.254;6.594;2023-05-15T09:32:12;19.40;99.90
51595;DHT22;37677;53.254;6.594;2023-05-15T09:34:40;19.00;16.20
51595;DHT22;37677;53.254;6.594;2023-05-15T09:37:08;19.70;99.90
51595;DHT22;37677;53.254;6.594;2023-05-15T09:39:41;20.30;99.90
51595;DHT22;37677;53.254;6.594;2023-05-15T09:42:10;20.30;99.90
51595;DHT22;37677;53.254;6.594;2023-05-15T09:44:40;20.10;1.00
51595;DHT22;37677;53.254;6.594;2023-05-15T09:47:07;20.60;1.00
51595;DHT22;37677;53.254;6.594;2023-05-15T09:49:34;20.40;1.00
51595;DHT22;37677;53.254;6.594;2023-05-15T09:52:00;20.30;1.00
51595;DHT22;37677;53.254;6.594;2023-05-15T09:54:27;20.10;99.90
51595;DHT22;37677;53.254;6.594;2023-05-15T09:56:55;20.20;99.90
51595;DHT22;37677;53.254;6.594;2023-05-15T09:59:21;19.20;99.90
51595;DHT22;37677;53.254;6.594;2023-05-15T10:01:50;19.80;1.00
51595;DHT22;37677;53.254;6.594;2023-05-15T10:04:17;19.90;1.00
51595;DHT22;37677;53.254;6.594;2023-05-15T10:06:46;19.70;1.00
51595;DHT22;37677;53.254;6.594;2023-05-15T10:09:13;19.80;1.00
51595;DHT22;37677;53.254;6.594;2023-05-15T10:11:42;19.90;1.00
51595;DHT22;37677;53.254;6.594;2023-05-15T10:14:10;20.00;99.90
51595;DHT22;37677;53.254;6.594;2023-05-15T10:16:38;19.90;99.90
51595;DHT22;37677;53.254;6.594;2023-05-15T10:19:05;19.60;99.90
51595;DHT22;37677;53.254;6.594;2023-05-15T10:21:33;19.60;99.90
51595;DHT22;37677;53.254;6.594;2023-05-15T10:24:00;19.80;99.90
51595;DHT22;37677;53.254;6.594;2023-05-15T10:26:37;20.00;99.90
51595;DHT22;37677;53.254;6.594;2023-05-15T10:29:09;19.90;1.00
51595;DHT22;37677;53.254;6.594;2023-05-15T10:31:35;19.70;1.00
51595;DHT22;37677;53.254;6.594;2023-05-15T10:34:05;19.50;99.90
51595;DHT22;37677;53.254;6.594;2023-05-15T10:36:32;19.60;99.90
51595;DHT22;37677;53.254;6.594;2023-05-15T10:38:59;19.30;99.90
51595;DHT22;37677;53.254;6.594;2023-05-15T10:43:54;18.60;99.90
51595;DHT22;37677;53.254;6.594;2023-05-15T10:46:21;18.80;1.00
51595;DHT22;37677;53.254;6.594;2023-05-15T10:48:48;18.70;99.90
51595;DHT22;37677;53.254;6.594;2023-05-15T10:51:23;19.10;99.90
51595;DHT22;37677;53.254;6.594;2023-05-15T10:53:50;19.00;99.90
51595;DHT22;37677;53.254;6.594;2023-05-15T10:56:16;18.50;99.90
51595;DHT22;37677;53.254;6.594;2023-05-15T12:40:58;16.20;99.90
51595;DHT22;37677;53.254;6.594;2023-05-15T12:43:25;16.20;99.90
51595;DHT22;37677;53.254;6.594;2023-05-15T12:45:55;16.60;99.90
51595;DHT22;37677;53.254;6.594;2023-05-15T12:48:21;16.50;99.90
51595;DHT22;37677;53.254;6.594;2023-05-15T12:50:47;16.50;1.00
51595;DHT22;37677;53.254;6.594;2023-05-15T12:53:13;16.80;1.00
51595;DHT22;37677;53.254;6.594;2023-05-15T12:55:40;16.90;99.90
51595;DHT22;37677;53.254;6.594;2023-05-15T12:58:12;15.60;80.30
51595;DHT22;37677;53.254;6.594;2023-05-15T13:00:41;16.80;97.20
51595;DHT22;37677;53.254;6.594;2023-05-15T13:03:11;16.70;99.90
51595;DHT22;37677;53.254;6.594;2023-05-15T13:05:38;17.00;99.90
51595;DHT22;37677;53.254;6.594;2023-05-15T13:08:05;16.90;1.00
51595;DHT22;37677;53.254;6.594;2023-05-15T13:10:36;16.90;14.90
51595;DHT22;37677;53.254;6.594;2023-05-15T13:13:02;17.00;99.90
51595;DHT22;37677;53.254;6.594;2023-05-15T13:15:36;16.60;99.90
51595;DHT22;37677;53.254;6.594;2023-05-15T13:18:07;16.50;99.90
51595;DHT22;37677;53.254;6.594;2023-05-15T13:23:06;16.50;99.90
51595;DHT22;37677;53.254;6.594;2023-05-15T13:25:32;16.40;99.90
51595;DHT22;37677;53.254;6.594;2023-05-15T13:28:00;16.00;99.90
51595;DHT22;37677;53.254;6.594;2023-05-15T13:30:27;15.70;99.90
51595;DHT22;37677;53.254;6.594;2023-05-15T13:32:52;15.80;1.00
51595;DHT22;37677;53.254;6.594;2023-05-15T13:35:18;15.70;98.80
51595;DHT22;37677;53.254;6.594;2023-05-15T13:37:47;15.60;99.90
51595;DHT22;37677;53.254;6.594;2023-05-15T13:40:12;15.70;99.90
51595;DHT22;37677;53.254;6.594;2023-05-15T13:42:42;15.50;99.90
51595;DHT22;37677;53.254;6.594;2023-05-15T13:45:10;15.50;99.90
51595;DHT22;37677;53.254;6.594;2023-05-15T13:47:36;15.70;99.90
51595;DHT22;37677;53.254;6.594;2023-05-15T13:50:10;15.70;99.90
51595;DHT22;37677;53.254;6.594;2023-05-15T13:52:36;15.60;99.90
51595;DHT22;37677;53.254;6.594;2023-05-15T13:55:02;15.50;99.90
51595;DHT22;37677;53.254;6.594;2023-05-15T13:57:29;15.40;99.90
51595;DHT22;37677;53.254;6.594;2023-05-15T13:59:55;15.30;99.90
51595;DHT22;37677;53.254;6.594;2023-05-15T14:02:21;15.50;99.90
51595;DHT22;37677;53.254;6.594;2023-05-15T14:04:51;15.50;99.90
51595;DHT22;37677;53.254;6.594;2023-05-15T14:07:16;15.20;99.90
51595;DHT22;37677;53.254;6.594;2023-05-15T14:09:42;15.50;99.90
51595;DHT22;37677;53.254;6.594;2023-05-15T14:12:08;14.80;99.90
51595;DHT22;37677;53.254;6.594;2023-05-15T14:14:34;14.90;99.90
51595;DHT22;37677;53.254;6.594;2023-05-15T14:17:00;15.10;99.90
51595;DHT22;37677;53.254;6.594;2023-05-15T14:19:25;15.00;99.90
51595;DHT22;37677;53.254;6.594;2023-05-15T14:21:51;15.00;99.90
51595;DHT22;37677;53.254;6.594;2023-05-15T14:24:17;15.20;99.90
51595;DHT22;37677;53.254;6.594;2023-05-15T14:26:43;14.80;99.90
51595;DHT22;37677;53.254;6.594;2023-05-15T14:29:10;14.80;99.90
51595;DHT22;37677;53.254;6.594;2023-05-15T14:31:36;15.40;1.00
51595;DHT22;37677;53.254;6.594;2023-05-15T14:34:02;14.70;99.90
51595;DHT22;37677;53.254;6.594;2023-05-15T14:36:30;14.70;99.90
51595;DHT22;37677;53.254;6.594;2023-05-15T14:38:55;14.70;1.00
51595;DHT22;37677;53.254;6.594;2023-05-15T14:41:27;14.20;1.00
51595;DHT22;37677;53.254;6.594;2023-05-15T14:43:53;14.30;1.00
51595;DHT22;37677;53.254;6.594;2023-05-15T14:46:18;14.00;1.00
51595;DHT22;37677;53.254;6.594;2023-05-15T14:48:44;14.10;1.00
51595;DHT22;37677;53.254;6.594;2023-05-15T14:51:10;13.90;1.00
51595;DHT22;37677;53.254;6.594;2023-05-15T14:53:36;13.60;1.00
51595;DHT22;37677;53.254;6.594;2023-05-15T14:56:02;13.60;1.00
51595;DHT22;37677;53.254;6.594;2023-05-15T14:58:28;13.60;1.00
51595;DHT22;37677;53.254;6.594;2023-05-15T15:00:55;13.70;1.00
51595;DHT22;37677;53.254;6.594;2023-05-15T15:03:20;15.40;1.00
51595;DHT22;37677;53.254;6.594;2023-05-15T15:05:46;13.70;1.00
51595;DHT22;37677;53.254;6.594;2023-05-15T15:08:13;13.70;1.00
51595;DHT22;37677;53.254;6.594;2023-05-15T15:10:39;12.30;1.00
51595;DHT22;37677;53.254;6.594;2023-05-15T15:13:06;13.90;1.00
51595;DHT22;37677;53.254;6.594;2023-05-15T15:15:33;14.00;1.00
51595;DHT22;37677;53.254;6.594;2023-05-15T15:17:59;13.70;1.00
51595;DHT22;37677;53.254;6.594;2023-05-15T15:20:26;13.70;1.00
51595;DHT22;37677;53.254;6.594;2023-05-15T15:22:52;13.60;1.00
51595;DHT22;37677;53.254;6.594;2023-05-15T15:25:18;15.10;1.00
51595;DHT22;37677;53.254;6.594;2023-05-15T15:27:45;12.10;1.00
51595;DHT22;37677;53.254;6.594;2023-05-15T15:30:11;13.30;1.00
51595;DHT22;37677;53.254;6.594;2023-05-15T15:32:37;13.20;4.90
51595;DHT22;37677;53.254;6.594;2023-05-15T15:35:04;13.30;6.90
51595;DHT22;37677;53.254;6.594;2023-05-15T15:37:31;13.30;7.40
51595;DHT22;37677;53.254;6.594;2023-05-15T15:39:58;13.00;1.00
51595;DHT22;37677;53.254;6.594;2023-05-15T15:42:27;13.30;8.70
51595;DHT22;37677;53.254;6.594;2023-05-15T15:44:54;12.70;1.00
51595;DHT22;37677;53.254;6.594;2023-05-15T15:47:20;13.00;6.90
51595;DHT22;37677;53.254;6.594;2023-05-15T15:49:46;12.90;14.90
51595;DHT22;37677;53.254;6.594;2023-05-15T15:52:12;12.80;14.20
51595;DHT22;37677;53.254;6.594;2023-05-15T15:54:38;12.70;14.80
51595;DHT22;37677;53.254;6.594;2023-05-15T15:57:04;12.90;13.10
51595;DHT22;37677;53.254;6.594;2023-05-15T15:59:30;12.60;10.60
51595;DHT22;37677;53.254;6.594;2023-05-15T16:01:56;12.40;9.60
51595;DHT22;37677;53.254;6.594;2023-05-15T16:04:22;12.80;13.00
51595;DHT22;37677;53.254;6.594;2023-05-15T16:06:48;12.50;10.30
51595;DHT22;37677;53.254;6.594;2023-05-15T16:09:15;13.40;9.40
51595;DHT22;37677;53.254;6.594;2023-05-15T16:11:43;12.20;8.50
51595;DHT22;37677;53.254;6.594;2023-05-15T16:14:09;12.40;13.70
51595;DHT22;37677;53.254;6.594;2023-05-15T16:16:34;12.50;13.00
51595;DHT22;37677;53.254;6.594;2023-05-15T16:19:00;12.10;7.30
51595;DHT22;37677;53.254;6.594;2023-05-15T16:21:26;12.30;11.80
51595;DHT22;37677;53.254;6.594;2023-05-15T16:23:52;14.80;17.40
51595;DHT22;37677;53.254;6.594;2023-05-15T16:26:17;12.40;12.20
51595;DHT22;37677;53.254;6.594;2023-05-15T16:28:43;14.30;11.50
51595;DHT22;37677;53.254;6.594;2023-05-15T16:31:09;12.20;17.60
51595;DHT22;37677;53.254;6.594;2023-05-15T16:33:34;12.20;16.90
51595;DHT22;37677;53.254;6.594;2023-05-15T16:36:00;13.90;13.40
51595;DHT22;37677;53.254;6.594;2023-05-15T16:38:29;12.10;11.70
51595;DHT22;37677;53.254;6.594;2023-05-15T16:40:55;12.20;13.50
51595;DHT22;37677;53.254;6.594;2023-05-15T16:43:21;10.90;9.90
51595;DHT22;37677;53.254;6.594;2023-05-15T16:45:48;12.10;6.20
51595;DHT22;37677;53.254;6.594;2023-05-15T16:48:17;12.80;8.40
51595;DHT22;37677;53.254;6.594;2023-05-15T16:50:42;12.10;7.90
51595;DHT22;37677;53.254;6.594;2023-05-15T16:53:08;13.70;9.90
51595;DHT22;37677;53.254;6.594;2023-05-15T16:55:37;13.00;8.30
51595;DHT22;37677;53.254;6.594;2023-05-15T16:58:02;12.30;9.40
51595;DHT22;37677;53.254;6.594;2023-05-15T17:00:28;12.20;4.20
51595;DHT22;37677;53.254;6.594;2023-05-15T17:02:54;12.20;1.00
51595;DHT22;37677;53.254;6.594;2023-05-15T17:05:19;12.30;1.00
51595;DHT22;37677;53.254;6.594;2023-05-15T17:07:45;12.00;1.00
51595;DHT22;37677;53.254;6.594;2023-05-15T17:10:12;12.80;1.00
51595;DHT22;37677;53.254;6.594;2023-05-15T17:12:37;13.10;1.00
51595;DHT22;37677;53.254;6.594;2023-05-15T17:15:04;12.50;1.00
51595;DHT22;37677;53.254;6.594;2023-05-15T17:17:33;11.90;1.00
51595;DHT22;37677;53.254;6.594;2023-05-15T17:19:59;11.90;1.60
51595;DHT22;37677;53.254;6.594;2023-05-15T17:22:24;11.70;6.30
51595;DHT22;37677;53.254;6.594;2023-05-15T17:24:53;10.70;7.00
51595;DHT22;37677;53.254;6.594;2023-05-15T17:27:19;11.70;11.20
51595;DHT22;37677;53.254;6.594;2023-05-15T17:29:45;11.70;7.00
51595;DHT22;37677;53.254;6.594;2023-05-15T17:32:10;13.30;10.20
51595;DHT22;37677;53.254;6.594;2023-05-15T17:34:36;11.80;1.20
51595;DHT22;37677;53.254;6.594;2023-05-15T17:37:05;11.70;3.00
51595;DHT22;37677;53.254;6.594;2023-05-15T17:39:31;11.70;5.30
51595;DHT22;37677;53.254;6.594;2023-05-15T17:41:57;12.80;5.90
51595;DHT22;37677;53.254;6.594;2023-05-15T17:44:23;11.60;4.60
51595;DHT22;37677;53.254;6.594;2023-05-15T17:46:54;11.50;8.20
51595;DHT22;37677;53.254;6.594;2023-05-15T17:49:20;11.60;11.20
51595;DHT22;37677;53.254;6.594;2023-05-15T17:51:46;11.70;12.90
51595;DHT22;37677;53.254;6.594;2023-05-15T17:54:11;11.70;10.80
51595;DHT22;37677;53.254;6.594;2023-05-15T17:56:37;11.70;13.10
51595;DHT22;37677;53.254;6.594;2023-05-15T17:59:03;11.20;16.10
51595;DHT22;37677;53.254;6.594;2023-05-15T18:01:29;11.50;14.90
51595;DHT22;37677;53.254;6.594;2023-05-15T18:03:55;11.90;16.60
51595;DHT22;37677;53.254;6.594;2023-05-15T18:06:21;12.30;17.20
51595;DHT22;37677;53.254;6.594;2023-05-15T18:08:47;11.50;14.70
51595;DHT22;37677;53.254;6.594;2023-05-15T18:11:15;13.50;15.70
51595;DHT22;37677;53.254;6.594;2023-05-15T18:13:42;11.40;8.50
51595;DHT22;37677;53.254;6.594;2023-05-15T18:16:08;12.20;14.10
51595;DHT22;37677;53.254;6.594;2023-05-15T18:18:34;11.50;17.10
51595;DHT22;37677;53.254;6.594;2023-05-15T18:21:00;11.40;17.40
51595;DHT22;37677;53.254;6.594;2023-05-15T18:23:26;10.90;17.80
51595;DHT22;37677;53.254;6.594;2023-05-15T18:25:53;11.50;17.40
51595;DHT22;37677;53.254;6.594;2023-05-15T18:28:18;12.50;22.50
51595;DHT22;37677;53.254;6.594;2023-05-15T18:30:44;11.40;18.30
51595;DHT22;37677;53.254;6.594;2023-05-15T18:33:11;11.40;21.00
51595;DHT22;37677;53.254;6.594;2023-05-15T18:35:37;11.30;18.90
51595;DHT22;37677;53.254;6.594;2023-05-15T18:38:03;11.30;20.10
51595;DHT22;37677;53.254;6.594;2023-05-15T18:40:29;11.20;20.20
51595;DHT22;37677;53.254;6.594;2023-05-15T18:42:55;11.20;19.70
51595;DHT22;37677;53.254;6.594;2023-05-15T18:45:21;11.20;21.00
51595;DHT22;37677;53.254;6.594;2023-05-15T18:47:47;11.40;20.80
51595;DHT22;37677;53.254;6.594;2023-05-15T18:50:13;11.30;20.90
51595;DHT22;37677;53.254;6.594;2023-05-15T18:52:41;11.60;21.10
51595;DHT22;37677;53.254;6.594;2023-05-15T18:55:07;13.20;22.90
51595;DHT22;37677;53.254;6.594;2023-05-15T18:57:34;11.20;21.60
51595;DHT22;37677;53.254;6.594;2023-05-15T19:00:00;11.90;27.20
51595;DHT22;37677;53.254;6.594;2023-05-15T19:02:25;11.30;29.50
51595;DHT22;37677;53.254;6.594;2023-05-15T19:04:51;11.20;35.80
51595;DHT22;37677;53.254;6.594;2023-05-15T19:07:16;11.10;39.50
51595;DHT22;37677;53.254;6.594;2023-05-15T19:09:42;11.20;46.70
51595;DHT22;37677;53.254;6.594;2023-05-15T19:12:08;11.30;53.20
51595;DHT22;37677;53.254;6.594;2023-05-15T19:14:34;11.00;53.10
51595;DHT22;37677;53.254;6.594;2023-05-15T19:16:59;12.60;58.50
51595;DHT22;37677;53.254;6.594;2023-05-15T19:19:25;11.20;57.90
51595;DHT22;37677;53.254;6.594;2023-05-15T19:21:52;11.20;63.10
51595;DHT22;37677;53.254;6.594;2023-05-15T19:24:18;11.00;65.60
51595;DHT22;37677;53.254;6.594;2023-05-15T19:26:44;11.80;70.20
51595;DHT22;37677;53.254;6.594;2023-05-15T19:29:10;11.50;71.20
51595;DHT22;37677;53.254;6.594;2023-05-15T19:31:35;12.40;78.90
51595;DHT22;37677;53.254;6.594;2023-05-15T19:34:03;11.10;79.40
51595;DHT22;37677;53.254;6.594;2023-05-15T19:36:28;10.60;83.60
51595;DHT22;37677;53.254;6.594;2023-05-15T19:38:56;10.80;83.30
51595;DHT22;37677;53.254;6.594;2023-05-15T19:41:22;10.60;85.70
51595;DHT22;37677;53.254;6.594;2023-05-15T19:43:48;11.10;87.60
51595;DHT22;37677;53.254;6.594;2023-05-15T19:46:18;10.50;91.60
51595;DHT22;37677;53.254;6.594;2023-05-15T19:48:44;11.80;92.90
51595;DHT22;37677;53.254;6.594;2023-05-15T19:51:10;11.40;92.00
51595;DHT22;37677;53.254;6.594;2023-05-15T19:53:36;10.40;93.40
51595;DHT22;37677;53.254;6.594;2023-05-15T19:56:02;10.80;93.90
51595;DHT22;37677;53.254;6.594;2023-05-15T19:58:28;10.40;94.60
51595;DHT22;37677;53.254;6.594;2023-05-15T20:00:54;10.40;96.00
51595;DHT22;37677;53.254;6.594;2023-05-15T20:05:46;10.20;98.50
51595;DHT22;37677;53.254;6.594;2023-05-15T20:08:12;10.20;99.90
51595;DHT22;37677;53.254;6.594;2023-05-15T20:10:39;10.00;99.90
51595;DHT22;37677;53.254;6.594;2023-05-15T20:54:42;9.60;82.20
51595;DHT22;37677;53.254;6.594;2023-05-15T20:57:08;11.60;85.50
51595;DHT22;37677;53.254;6.594;2023-05-15T20:59:33;9.60;89.00
51595;DHT22;37677;53.254;6.594;2023-05-15T21:01:59;9.60;90.20
51595;DHT22;37677;53.254;6.594;2023-05-15T21:04:25;9.90;91.90
51595;DHT22;37677;53.254;6.594;2023-05-15T21:06:51;9.50;91.00
51595;DHT22;37677;53.254;6.594;2023-05-15T21:09:17;9.70;88.70
51595;DHT22;37677;53.254;6.594;2023-05-15T21:11:43;9.40;90.30
51595;DHT22;37677;53.254;6.594;2023-05-15T21:14:10;9.60;90.30
51595;DHT22;37677;53.254;6.594;2023-05-15T21:16:36;9.40;85.80
51595;DHT22;37677;53.254;6.594;2023-05-15T21:19:01;9.60;87.40
51595;DHT22;37677;53.254;6.594;2023-05-15T21:21:27;9.70;87.70
51595;DHT22;37677;53.254;6.594;2023-05-15T21:23:53;10.50;84.70
51595;DHT22;37677;53.254;6.594;2023-05-15T21:26:18;9.80;89.80
51595;DHT22;37677;53.254;6.594;2023-05-15T21:28:44;9.60;89.00
51595;DHT22;37677;53.254;6.594;2023-05-15T21:31:10;9.80;86.50
51595;DHT22;37677;53.254;6.594;2023-05-15T21:33:36;10.10;89.00
51595;DHT22;37677;53.254;6.594;2023-05-15T21:36:03;9.60;84.20
51595;DHT22;37677;53.254;6.594;2023-05-15T21:38:29;9.40;84.80
51595;DHT22;37677;53.254;6.594;2023-05-15T21:40:56;10.00;84.00
51595;DHT22;37677;53.254;6.594;2023-05-15T21:43:21;9.90;81.20
51595;DHT22;37677;53.254;6.594;2023-05-15T21:45:47;9.50;81.50
51595;DHT22;37677;53.254;6.594;2023-05-15T21:48:13;9.90;80.70
51595;DHT22;37677;53.254;6.594;2023-05-15T21:50:39;9.80;74.80
51595;DHT22;37677;53.254;6.594;2023-05-15T21:53:05;9.60;74.50
51595;DHT22;37677;53.254;6.594;2023-05-15T21:55:30;9.80;67.70
51595;DHT22;37677;53.254;6.594;2023-05-15T21:57:56;9.50;62.50
51595;DHT22;37677;53.254;6.594;2023-05-15T22:00:22;9.70;72.50
51595;DHT22;37677;53.254;6.594;2023-05-15T22:02:47;9.90;67.10
51595;DHT22;37677;53.254;6.594;2023-05-15T22:05:13;9.70;68.20
51595;DHT22;37677;53.254;6.594;2023-05-15T22:07:39;9.70;74.90
51595;DHT22;37677;53.254;6.594;2023-05-15T22:10:06;9.70;62.10
51595;DHT22;37677;53.254;6.594;2023-05-15T22:12:32;9.60;65.80
51595;DHT22;37677;53.254;6.594;2023-05-15T22:14:58;9.80;58.20
51595;DHT22;37677;53.254;6.594;2023-05-15T22:17:24;9.70;56.40
51595;DHT22;37677;53.254;6.594;2023-05-15T22:19:51;9.60;52.30
51595;DHT22;37677;53.254;6.594;2023-05-15T22:22:18;9.50;63.50